createdAt,value
2019-01-02T00:00:39.325Z,99954.03
2019-01-02T00:03:12.266Z,99949.54
2019-01-02T00:05:44.314Z,99948.73
2019-01-02T00:08:15.822Z,99958.40
2019-01-02T00:10:47.206Z,99954.08
2019-01-02T00:13:18.633Z,99955.48
2019-01-02T00:15:50.009Z,99959.84
2019-01-02T00:18:22.643Z,99961.52
2019-01-02T00:20:54.167Z,99946.24
2019-01-02T00:23:25.848Z,99937.94
2019-01-02T00:25:57.355Z,99935.33
2019-01-02T00:28:28.751Z,99936.55
2019-01-02T00:31:00.197Z,99924.91
2019-01-02T00:33:31.846Z,99919.38
2019-01-02T00:36:04.093Z,99930.96
2019-01-02T00:38:35.440Z,99948.04
2019-01-02T00:41:07.175Z,99935.26
2019-01-02T00:43:39.018Z,99933.31
2019-01-02T00:46:10.800Z,99931.80
2019-01-02T00:48:42.398Z,99938.61
2019-01-02T00:51:13.796Z,99940.59
2019-01-02T00:53:45.306Z,99947.58
2019-01-02T00:56:17.026Z,99949.41
2019-01-02T00:58:48.620Z,99958.17
2019-01-02T01:01:20.032Z,99953.45
2019-01-02T01:03:51.891Z,99967.37
2019-01-02T01:06:23.655Z,99969.94
2019-01-02T01:08:55.046Z,99957.34
2019-01-02T01:11:26.544Z,99969.30
2019-01-02T01:13:58.455Z,99975.65
2019-01-02T01:16:29.862Z,99972.53
2019-01-02T01:19:01.563Z,99970.62
2019-01-02T01:21:32.968Z,99966.17
2019-01-02T01:24:05.584Z,99970.45
2019-01-02T01:26:38.007Z,99969.42
2019-01-02T01:29:09.532Z,99967.41
2019-01-02T01:31:41.315Z,99971.73
2019-01-02T01:34:12.714Z,99973.92
2019-01-02T01:36:44.088Z,99981.99
2019-01-02T01:39:15.649Z,99983.02
2019-01-02T01:41:47.153Z,99983.64
2019-01-02T01:44:18.519Z,99982.27
2019-01-02T01:46:49.930Z,99983.18
2019-01-02T01:49:21.331Z,99986.11
2019-01-02T01:51:53.303Z,99988.72
2019-01-02T01:54:24.740Z,99986.03
2019-01-02T01:56:56.175Z,99992.08
2019-01-02T01:59:27.935Z,99986.19
2019-01-02T02:01:59.686Z,99993.83
2019-01-02T02:04:31.047Z,99995.38
2019-01-02T02:07:02.880Z,99988.09
2019-01-02T02:09:34.653Z,99995.17
2019-01-02T02:12:06.203Z,99995.53
2019-01-02T02:14:38.845Z,99991.78
2019-01-02T02:17:10.355Z,99988.86
2019-01-02T02:19:41.846Z,99998.66
2019-01-02T02:22:13.501Z,99994.22
2019-01-02T02:24:45.970Z,99992.79
2019-01-02T02:27:17.755Z,99986.63
2019-01-02T02:29:49.161Z,99989.75
2019-01-02T02:32:20.559Z,99989.78
2019-01-02T02:34:51.948Z,99983.16
2019-01-02T02:37:23.355Z,99980.63
2019-01-02T02:39:54.747Z,99975.83
2019-01-02T02:42:26.156Z,99977.66
2019-01-02T02:44:57.962Z,99985.61
2019-01-02T02:47:29.749Z,99997.48
2019-01-02T02:50:01.476Z,100000.17
2019-01-02T02:52:32.880Z,100009.69
2019-01-02T02:55:04.302Z,100021.61
2019-01-02T02:57:35.671Z,100017.80
2019-01-02T03:00:10.965Z,100033.91
2019-01-02T03:02:42.539Z,100053.05
2019-01-02T03:05:15.192Z,100055.20
2019-01-02T03:07:47.092Z,100060.36
2019-01-02T03:10:18.819Z,100056.64
2019-01-02T03:12:51.162Z,100047.73
2019-01-02T03:15:22.852Z,100051.70
2019-01-02T03:17:54.247Z,100043.77
2019-01-02T03:20:25.655Z,100041.63
2019-01-02T03:22:57.080Z,100041.52
2019-01-02T03:25:28.748Z,100038.78
2019-01-02T03:28:00.720Z,100042.36
2019-01-02T03:30:32.500Z,100053.86
2019-01-02T03:33:04.631Z,100047.55
2019-01-02T03:35:35.987Z,100046.12
2019-01-02T03:38:07.405Z,100054.06
2019-01-02T03:40:39.067Z,100045.23
2019-01-02T03:43:10.828Z,100044.74
2019-01-02T03:45:42.306Z,100049.30
2019-01-02T03:48:13.782Z,100059.69
2019-01-02T03:50:45.228Z,100061.37
2019-01-02T03:53:16.615Z,100043.55
2019-01-02T03:55:48.168Z,100045.19
2019-01-02T03:58:19.616Z,100044.73
2019-01-02T04:00:51.017Z,100049.68
2019-01-02T04:03:22.439Z,100050.23
2019-01-02T04:05:54.921Z,100056.48
2019-01-02T04:08:27.228Z,100058.27
2019-01-02T04:10:58.713Z,100062.62
2019-01-02T04:13:30.106Z,100051.22
2019-01-02T04:16:01.472Z,100050.91
2019-01-02T04:18:32.870Z,100058.75
2019-01-02T04:21:06.248Z,100055.55
2019-01-02T04:23:37.625Z,100059.89
2019-01-02T04:26:09.006Z,100058.94
2019-01-02T04:28:40.519Z,100065.52
2019-01-02T04:31:12.184Z,100070.31
2019-01-02T04:33:43.631Z,100069.88
2019-01-02T04:36:15.802Z,100068.06
2019-01-02T04:38:47.352Z,100072.49
2019-01-02T04:41:18.853Z,100073.38
2019-01-02T04:43:50.251Z,100067.30
2019-01-02T04:46:21.654Z,100083.59
2019-01-02T04:48:53.048Z,100080.58
2019-01-02T04:51:24.443Z,100087.25
2019-01-02T04:53:55.856Z,100091.95
2019-01-02T04:56:27.238Z,100095.92
2019-01-02T04:58:59.560Z,100098.20
2019-01-02T05:01:30.968Z,100099.03
2019-01-02T05:04:02.522Z,100098.20
2019-01-02T05:06:33.864Z,100101.30
2019-01-02T05:09:07.096Z,100117.56
2019-01-02T05:11:39.428Z,100112.09
2019-01-02T05:14:10.943Z,100117.31
2019-01-02T05:16:42.367Z,100115.16
2019-01-02T05:19:13.782Z,100114.36
2019-01-02T05:21:45.582Z,100121.09
2019-01-02T05:24:17.268Z,100122.52
2019-01-02T05:26:48.799Z,100122.17
2019-01-02T05:29:20.580Z,100119.13
2019-01-02T05:31:52.042Z,100121.20
2019-01-02T05:34:23.490Z,100131.02
2019-01-02T05:36:55.242Z,100132.94
2019-01-02T05:39:26.786Z,100137.50
2019-01-02T05:42:00.623Z,100141.92
2019-01-02T05:44:32.039Z,100142.02
2019-01-02T05:47:03.803Z,100148.04
2019-01-02T05:49:35.250Z,100156.07
2019-01-02T05:52:06.972Z,100155.48
2019-01-02T05:54:38.353Z,100161.78
2019-01-02T05:57:10.028Z,100171.89
2019-01-02T05:59:41.833Z,100170.09
2019-01-02T06:02:13.539Z,100172.80
2019-01-02T06:04:45.654Z,100175.09
2019-01-02T06:07:17.195Z,100178.28
2019-01-02T06:09:48.638Z,100183.55
2019-01-02T06:12:20.374Z,100188.01
2019-01-02T06:14:52.045Z,100192.25
2019-01-02T06:17:23.488Z,100191.31
2019-01-02T06:19:55.257Z,100191.41
2019-01-02T06:22:26.659Z,100190.02
2019-01-02T06:25:00.820Z,100190.57
2019-01-02T06:27:32.183Z,100199.95
2019-01-02T06:30:03.599Z,100193.52
2019-01-02T06:32:35.003Z,100194.84
2019-01-02T06:35:06.888Z,100189.59
2019-01-02T06:37:38.306Z,100193.16
2019-01-02T06:40:11.913Z,100199.75
2019-01-02T06:42:43.319Z,100200.33
2019-01-02T06:45:16.831Z,100206.50
2019-01-02T06:47:48.836Z,100191.16
2019-01-02T06:50:23.105Z,100200.41
2019-01-02T06:52:54.851Z,100200.09
2019-01-02T06:55:26.254Z,100205.14
2019-01-02T06:57:57.953Z,100202.64
2019-01-02T07:00:34.790Z,100205.05
2019-01-02T07:03:06.155Z,100210.50
2019-01-02T07:05:37.604Z,100217.38
2019-01-02T07:08:09.289Z,100219.16
2019-01-02T07:10:40.762Z,100221.00
2019-01-02T07:13:12.689Z,100224.48
2019-01-02T07:15:44.298Z,100232.64
2019-01-02T07:18:15.980Z,100236.85
2019-01-02T07:20:47.555Z,100238.89
2019-01-02T07:23:19.294Z,100247.88
2019-01-02T07:25:51.097Z,100244.95
2019-01-02T07:28:22.507Z,100253.78
2019-01-02T07:30:53.969Z,100252.56
2019-01-02T07:33:38.271Z,100263.96
2019-01-02T07:36:56.804Z,100263.00
2019-01-02T07:40:14.677Z,100259.22
2019-01-02T07:43:51.544Z,100259.11
2019-01-02T07:46:58.616Z,100265.97
2019-01-02T07:50:10.821Z,100270.72
2019-01-02T07:53:31.958Z,100270.13
2019-01-02T07:56:37.036Z,100276.25
2019-01-02T07:59:39.804Z,100284.84
2019-01-02T08:02:48.037Z,100281.16
2019-01-02T08:05:42.976Z,100288.40
2019-01-02T08:08:45.782Z,100276.80
2019-01-02T08:11:48.436Z,100276.34
2019-01-02T08:15:02.874Z,100283.46
2019-01-02T08:17:54.127Z,100285.09
2019-01-02T08:21:19.186Z,100280.25
2019-01-02T08:24:44.554Z,100295.66
2019-01-02T08:27:51.388Z,100295.17
2019-01-02T08:31:11.381Z,100292.23
2019-01-02T08:34:35.185Z,100288.86
2019-01-02T08:37:38.886Z,100294.64
2019-01-02T08:40:54.172Z,100301.14
2019-01-02T08:44:11.650Z,100298.03
2019-01-02T08:47:22.153Z,100298.88
2019-01-02T08:50:22.766Z,100295.84
2019-01-02T08:53:25.129Z,100299.90
2019-01-02T08:56:30.371Z,100304.21
2019-01-02T08:59:48.046Z,100295.13
2019-01-02T09:03:02.184Z,100300.23
2019-01-02T09:05:58.541Z,100296.64
2019-01-02T09:09:11.002Z,100309.50
2019-01-02T09:12:29.418Z,100313.34
2019-01-02T09:16:09.443Z,100302.86
2019-01-02T09:19:01.435Z,100313.86
2019-01-02T09:22:20.318Z,100313.18
2019-01-02T09:25:35.993Z,100313.64
2019-01-02T09:28:47.133Z,100316.84
2019-01-02T09:31:48.762Z,100324.30
2019-01-02T09:34:59.642Z,100334.21
2019-01-02T09:37:52.378Z,100336.86
2019-01-02T09:41:19.808Z,100332.27
2019-01-02T09:44:23.959Z,100342.16
2019-01-02T09:47:41.192Z,100340.92
2019-01-02T09:50:37.701Z,100349.08
2019-01-02T09:53:47.030Z,100352.73
2019-01-02T09:56:47.065Z,100342.10
2019-01-02T10:00:01.660Z,100339.48
2019-01-02T10:03:11.962Z,100339.39
2019-01-02T10:06:26.347Z,100335.64
2019-01-02T10:09:41.583Z,100341.90
2019-01-02T10:12:41.086Z,100335.55
2019-01-02T10:15:45.660Z,100341.58
2019-01-02T10:18:39.538Z,100350.05
2019-01-02T10:21:44.079Z,100343.75
2019-01-02T10:24:29.566Z,100339.27
2019-01-02T10:27:47.881Z,100343.11
2019-01-02T10:30:50.718Z,100330.88
2019-01-02T10:33:59.374Z,100325.70
2019-01-02T10:37:06.115Z,100328.77
2019-01-02T10:40:04.964Z,100314.69
2019-01-02T10:43:05.328Z,100309.19
2019-01-02T10:46:27.733Z,100308.23
2019-01-02T10:49:54.256Z,100309.00
2019-01-02T10:53:06.514Z,100305.20
2019-01-02T10:56:15.975Z,100306.92
2019-01-02T10:59:24.275Z,100296.50
2019-01-02T11:02:38.777Z,100293.95
2019-01-02T11:06:01.017Z,100294.55
2019-01-02T11:08:56.726Z,100293.11
2019-01-02T11:12:20.925Z,100285.48
2019-01-02T11:15:20.392Z,100286.26
2019-01-02T11:18:07.418Z,100283.77
2019-01-02T11:21:17.134Z,100285.95
2019-01-02T11:24:25.479Z,100276.38
2019-01-02T11:27:50.821Z,100280.80
2019-01-02T11:31:12.690Z,100279.23
2019-01-02T11:34:35.533Z,100273.93
2019-01-02T11:37:31.686Z,100265.58
2019-01-02T11:40:52.115Z,100268.69
2019-01-02T11:44:21.206Z,100265.70
2019-01-02T11:46:48.711Z,100264.67
2019-01-02T11:49:20.480Z,100265.77
2019-01-02T11:51:51.993Z,100265.28
2019-01-02T11:54:23.463Z,100261.80
2019-01-02T11:56:54.879Z,100264.94
2019-01-02T11:59:26.476Z,100254.21
2019-01-02T12:01:57.994Z,100252.76
2019-01-02T12:04:29.407Z,100254.14
2019-01-02T12:07:01.254Z,100255.11
2019-01-02T12:09:32.703Z,100255.62
2019-01-02T12:12:04.317Z,100251.66
2019-01-02T12:14:35.739Z,100252.34
2019-01-02T12:17:07.101Z,100251.84
2019-01-02T12:19:38.630Z,100257.14
2019-01-02T12:22:10.049Z,100255.34
2019-01-02T12:24:41.475Z,100251.42
2019-01-02T12:27:12.969Z,100243.16
2019-01-02T12:29:44.452Z,100251.16
2019-01-02T12:32:15.865Z,100249.00
2019-01-02T12:34:47.309Z,100246.58
2019-01-02T12:37:18.802Z,100236.89
2019-01-02T12:39:50.173Z,100239.41
2019-01-02T12:42:21.562Z,100240.27
2019-01-02T12:44:52.987Z,100229.20
2019-01-02T12:47:24.504Z,100230.24
2019-01-02T12:49:55.879Z,100227.43
2019-01-02T12:52:27.478Z,100229.16
2019-01-02T12:54:58.925Z,100225.62
2019-01-02T12:57:30.753Z,100225.75
2019-01-02T13:00:02.128Z,100217.39
2019-01-02T13:03:10.966Z,100227.11
2019-01-02T13:06:26.488Z,100221.26
2019-01-02T13:09:51.050Z,100221.84
2019-01-02T13:12:51.065Z,100217.61
2019-01-02T13:16:27.666Z,100215.30
2019-01-02T13:19:40.195Z,100218.77
2019-01-02T13:23:17.089Z,100215.30
2019-01-02T13:26:03.862Z,100208.33
2019-01-02T13:29:10.150Z,100209.25
2019-01-02T13:32:43.899Z,100211.91
2019-01-02T13:35:48.410Z,100204.45
2019-01-02T13:38:35.584Z,100203.92
2019-01-02T13:41:43.426Z,100204.56
2019-01-02T13:44:47.420Z,100206.36
2019-01-02T13:48:33.789Z,100198.18
2019-01-02T13:51:12.251Z,100206.17
2019-01-02T13:53:44.670Z,100209.19
2019-01-02T13:56:19.377Z,100213.64
2019-01-02T13:58:50.814Z,100208.86
2019-01-02T14:01:22.262Z,100211.77
2019-01-02T14:03:56.675Z,100212.25
2019-01-02T14:06:28.094Z,100207.06
2019-01-02T14:08:59.487Z,100205.92
2019-01-02T14:11:30.899Z,100201.78
2019-01-02T14:14:02.326Z,100204.04
2019-01-02T14:16:34.819Z,100214.41
2019-01-02T14:19:06.236Z,100219.87
2019-01-02T14:21:37.661Z,100215.05
2019-01-02T14:24:09.049Z,100211.08
2019-01-02T14:26:40.489Z,100214.71
2019-01-02T14:29:11.910Z,100210.50
2019-01-02T14:31:43.255Z,100209.30
2019-01-02T14:34:14.661Z,100212.08
2019-01-02T14:36:46.117Z,100213.45
2019-01-02T14:39:17.467Z,100210.03
2019-01-02T14:41:48.936Z,100221.53
2019-01-02T14:44:20.394Z,100218.06
2019-01-02T14:46:52.075Z,100215.25
2019-01-02T14:49:23.795Z,100221.19
2019-01-02T14:51:55.653Z,100220.70
2019-01-02T14:54:27.111Z,100218.59
2019-01-02T14:56:58.561Z,100215.86
2019-01-02T14:59:30.320Z,100216.13
2019-01-02T15:02:01.698Z,100213.82
2019-01-02T15:04:33.103Z,100222.86
2019-01-02T15:07:04.495Z,100221.72
2019-01-02T15:09:35.894Z,100225.84
2019-01-02T15:12:07.303Z,100230.47
2019-01-02T15:14:38.709Z,100225.84
2019-01-02T15:17:10.099Z,100237.13
2019-01-02T15:19:41.541Z,100243.14
2019-01-02T15:22:12.891Z,100235.43
2019-01-02T15:24:49.440Z,100236.36
2019-01-02T15:27:17.448Z,100236.00
2019-01-02T15:29:49.238Z,100240.08
2019-01-02T15:32:20.933Z,100245.41
2019-01-02T15:34:52.361Z,100245.15
2019-01-02T15:37:23.775Z,100251.88
2019-01-02T15:39:55.204Z,100258.56
2019-01-02T15:42:26.550Z,100259.59
2019-01-02T15:45:01.081Z,100263.73
2019-01-02T15:47:32.419Z,100262.20
2019-01-02T15:50:04.351Z,100271.36
2019-01-02T15:52:35.897Z,100273.25
2019-01-02T15:55:08.018Z,100277.80
2019-01-02T15:57:39.357Z,100279.12
2019-01-02T16:00:13.628Z,100279.16
2019-01-02T16:02:45.028Z,100284.11
2019-01-02T16:05:16.425Z,100282.27
2019-01-02T16:07:48.075Z,100293.50
2019-01-02T16:10:19.444Z,100294.53
2019-01-02T16:12:50.840Z,100294.55
2019-01-02T16:15:22.619Z,100296.44
2019-01-02T16:17:54.411Z,100299.92
2019-01-02T16:20:25.885Z,100311.03
2019-01-02T16:22:57.761Z,100310.70
2019-01-02T16:25:29.690Z,100310.68
2019-01-02T16:28:01.274Z,100311.45
2019-01-02T16:30:33.058Z,100310.99
2019-01-02T16:33:04.595Z,100309.19
2019-01-02T16:35:36.331Z,100313.95
2019-01-02T16:38:07.720Z,100313.88
2019-01-02T16:40:39.208Z,100316.11
2019-01-02T16:43:11.035Z,100318.48
2019-01-02T16:45:42.551Z,100318.11
2019-01-02T16:48:14.918Z,100317.64
2019-01-02T16:50:46.558Z,100320.08
2019-01-02T16:53:17.903Z,100320.59
2019-01-02T16:55:49.363Z,100322.78
2019-01-02T16:58:20.857Z,100327.02
2019-01-02T17:00:52.457Z,100332.20
2019-01-02T17:03:24.357Z,100334.77
2019-01-02T17:05:56.415Z,100335.59
2019-01-02T17:08:28.086Z,100347.59
2019-01-02T17:10:59.511Z,100355.92
2019-01-02T17:13:30.913Z,100352.80
2019-01-02T17:16:02.698Z,100353.30
2019-01-02T17:18:34.093Z,100362.23
2019-01-02T17:21:05.640Z,100362.34
2019-01-02T17:23:39.111Z,100366.95
2019-01-02T17:26:10.898Z,100373.20
2019-01-02T17:28:45.192Z,100376.84
2019-01-02T17:31:16.989Z,100372.06
2019-01-02T17:33:48.435Z,100370.80
2019-01-02T17:36:19.922Z,100374.32
2019-01-02T17:38:51.665Z,100371.98
2019-01-02T17:41:34.417Z,100383.86
2019-01-02T17:44:05.849Z,100371.94
2019-01-02T17:46:37.457Z,100380.75
2019-01-02T17:49:10.016Z,100384.27
2019-01-02T17:51:41.681Z,100387.75
2019-01-02T17:54:14.031Z,100385.95
2019-01-02T17:56:45.675Z,100388.00
2019-01-02T17:59:17.498Z,100391.08
2019-01-02T18:01:49.178Z,100398.98
2019-01-02T18:04:20.603Z,100401.23
2019-01-02T18:06:52.207Z,100401.27
2019-01-02T18:09:24.182Z,100401.66
2019-01-02T18:11:55.951Z,100408.64
2019-01-02T18:14:27.417Z,100402.95
2019-01-02T18:16:58.866Z,100405.14
2019-01-02T18:19:30.670Z,100410.53
2019-01-02T18:22:02.320Z,100412.75
2019-01-02T18:24:33.844Z,100409.18
2019-01-02T18:27:05.571Z,100418.05
2019-01-02T18:29:36.983Z,100415.44
2019-01-02T18:32:09.187Z,100416.37
2019-01-02T18:34:40.606Z,100420.60
2019-01-02T18:37:12.498Z,100424.97
2019-01-02T18:39:43.965Z,100427.72
2019-01-02T18:42:15.616Z,100431.38
2019-01-02T18:44:47.287Z,100431.52
2019-01-02T18:47:19.223Z,100436.52
2019-01-02T18:49:50.734Z,100437.98
2019-01-02T18:52:22.364Z,100440.80
2019-01-02T18:54:54.222Z,100437.03
2019-01-02T18:57:25.783Z,100437.58
2019-01-02T18:59:57.348Z,100436.02
2019-01-02T19:02:28.748Z,100448.42
2019-01-02T19:05:00.596Z,100450.43
2019-01-02T19:07:33.531Z,100453.55
2019-01-02T19:10:05.265Z,100455.92
2019-01-02T19:12:36.638Z,100458.20
2019-01-02T19:15:09.302Z,100458.72
2019-01-02T19:17:41.048Z,100466.66
2019-01-02T19:20:12.641Z,100457.41
2019-01-02T19:22:44.059Z,100465.39
2019-01-02T19:25:15.537Z,100464.28
2019-01-02T19:27:47.432Z,100465.35
2019-01-02T19:30:18.799Z,100462.31
2019-01-02T19:32:51.868Z,100466.20
2019-01-02T19:35:23.268Z,100463.83
2019-01-02T19:37:54.759Z,100458.72
2019-01-02T19:40:26.209Z,100455.02
2019-01-02T19:42:58.354Z,100459.67
2019-01-02T19:45:31.509Z,100457.67
2019-01-02T19:48:03.080Z,100458.63
2019-01-02T19:50:35.003Z,100453.64
2019-01-02T19:53:06.376Z,100453.02
2019-01-02T19:55:38.726Z,100458.84
2019-01-02T19:58:10.272Z,100456.38
2019-01-02T20:00:41.722Z,100455.95
2019-01-02T20:03:13.065Z,100455.08
2019-01-02T20:05:44.679Z,100457.75
2019-01-02T20:08:16.599Z,100452.12
2019-01-02T20:10:47.929Z,100453.23
2019-01-02T20:13:19.652Z,100452.97
2019-01-02T20:15:51.452Z,100453.19
2019-01-02T20:18:22.799Z,100451.64
2019-01-02T20:20:54.454Z,100456.26
2019-01-02T20:23:25.816Z,100454.59
2019-01-02T20:25:57.479Z,100459.95
2019-01-02T20:28:29.160Z,100463.70
2019-01-02T20:31:01.575Z,100467.37
2019-01-02T20:33:33.074Z,100462.69
2019-01-02T20:36:04.476Z,100464.95
2019-01-02T20:38:35.931Z,100464.00
2019-01-02T20:41:07.357Z,100464.41
2019-01-02T20:43:38.883Z,100466.14
2019-01-02T20:46:11.763Z,100466.05
2019-01-02T20:48:43.183Z,100467.09
2019-01-02T20:51:14.657Z,100463.67
2019-01-02T20:53:46.168Z,100463.30
2019-01-02T20:56:18.103Z,100462.52
2019-01-02T20:58:49.629Z,100464.84
2019-01-02T21:01:21.082Z,100472.30
2019-01-02T21:03:52.519Z,100473.57
2019-01-02T21:06:23.956Z,100480.04
2019-01-02T21:08:55.349Z,100483.38
2019-01-02T21:11:26.883Z,100484.45
2019-01-02T21:13:58.325Z,100481.13
2019-01-02T21:16:29.760Z,100485.80
2019-01-02T21:19:01.108Z,100487.84
2019-01-02T21:21:32.582Z,100493.05
2019-01-02T21:24:04.151Z,100492.50
2019-01-02T21:26:35.920Z,100489.00
2019-01-02T21:29:07.875Z,100492.05
2019-01-02T21:31:39.371Z,100498.98
2019-01-02T21:34:10.726Z,100492.91
2019-01-02T21:36:42.191Z,100500.05
2019-01-02T21:39:13.886Z,100502.77
2019-01-02T21:41:45.303Z,100495.68
2019-01-02T21:44:16.753Z,100502.69
2019-01-02T21:46:48.780Z,100496.55
2019-01-02T21:49:21.905Z,100502.33
2019-01-02T21:51:53.416Z,100498.97
2019-01-02T21:54:24.816Z,100492.94
2019-01-02T21:56:56.289Z,100500.03
2019-01-02T21:59:27.659Z,100500.43
2019-01-02T22:01:59.116Z,100498.57
2019-01-02T22:04:30.523Z,100504.39
2019-01-02T22:07:01.962Z,100500.08
2019-01-02T22:09:33.339Z,100499.25
2019-01-02T22:12:04.811Z,100507.61
2019-01-02T22:14:36.244Z,100502.66
2019-01-02T22:17:07.681Z,100500.44
2019-01-02T22:19:40.219Z,100496.03
2019-01-02T22:22:11.608Z,100496.98
2019-01-02T22:24:43.371Z,100494.84
2019-01-02T22:27:14.808Z,100491.81
2019-01-02T22:29:46.151Z,100494.70
2019-01-02T22:32:17.675Z,100485.85
2019-01-02T22:34:49.368Z,100486.44
2019-01-02T22:37:20.928Z,100486.54
2019-01-02T22:39:52.327Z,100486.59
2019-01-02T22:42:23.685Z,100483.22
2019-01-02T22:44:55.511Z,100484.61
2019-01-02T22:47:28.009Z,100485.97
2019-01-02T22:49:59.812Z,100480.95
2019-01-02T22:52:31.249Z,100488.11
2019-01-02T22:55:03.022Z,100486.90
2019-01-02T22:57:34.455Z,100482.19
2019-01-02T23:00:11.944Z,100487.50
2019-01-02T23:03:01.432Z,100491.12
2019-01-02T23:05:49.579Z,100489.83
2019-01-02T23:08:39.982Z,100483.73
2019-01-02T23:11:38.492Z,100484.22
2019-01-02T23:14:38.346Z,100484.64
2019-01-02T23:17:27.346Z,100496.98
2019-01-02T23:20:21.830Z,100496.64
2019-01-02T23:23:14.559Z,100499.31
2019-01-02T23:26:11.079Z,100498.94
2019-01-02T23:32:01.321Z,100503.37
2019-01-02T23:34:50.560Z,100507.77
2019-01-02T23:37:53.266Z,100500.80
2019-01-02T23:40:43.635Z,100504.75
2019-01-02T23:43:40.154Z,100504.73
2019-01-02T23:46:30.528Z,100508.27
2019-01-02T23:49:26.533Z,100513.08
2019-01-02T23:52:25.980Z,100510.85
2019-01-02T23:55:15.415Z,100519.64
2019-01-02T23:58:04.326Z,100517.86
